KINL/INL METAR and TAF weather

Enter ICAO airport designator
Station Type Date Time Source
KINL METAR 2019/12/06 01:55 UTC NOAA

KINL 060155Z AUTO 30013KT 10SM OVC016 M06/M10 A3008 RMK AO2 SLP208 T10611100


Station Type Date Time Source
KINL Decoded METAR 2019/12/06 01:55 UTC NOAA

FALLS INTERNATIONAL AIRPORT , MN, United States (KINL) 48-34N 093-24W 360M
Dec 05, 2019 - 08:55 PM EST / 2019.12.06 0155 UTC
Wind: from the WNW (300 degrees) at 15 MPH (13 KT):0
Visibility: 10 mile(s):0
Sky conditions: overcast
Temperature: 21.0 F (-6.1 C)
Windchill: 6 F (-14 C):1
Dew Point: 14.0 F (-10.0 C)
Relative Humidity: 73%
Pressure (altimeter): 30.08 in. Hg (1018 hPa)
ob: KINL 060155Z AUTO 30013KT 10SM OVC016 M06/M10 A3008 RMK AO2 SLP208 T10611100
cycle: 2

Station Type Date Time Source
KINL TAF 2019/12/05 22:18 UTC NOAA

TAF
AMD KINL 052215Z 0522/0618 VRB03KT 6SM -SN BR SCT015 OVC025
FM060000 32006KT P6SM VCSH BKN025
FM060500 32006KT P6SM SCT025 BKN035
FM061100 28005KT P6SM FEW060

Example: see airport list